sensor_id;sensor_type;location;lat;lon;timestamp;P1;durP1;ratioP1;P2;durP2;ratioP2
73733;SDS011;62039;50.000;9.064;2023-04-24T00:00:29;0.63;;;0.63;;
73733;SDS011;62039;50.000;9.064;2023-04-24T00:02:56;1.13;;;1.00;;
73733;SDS011;62039;50.000;9.064;2023-04-24T00:05:24;1.27;;;0.80;;
73733;SDS011;62039;50.000;9.064;2023-04-24T00:07:51;0.97;;;0.87;;
73733;SDS011;62039;50.000;9.064;2023-04-24T00:10:18;1.70;;;0.87;;
73733;SDS011;62039;50.000;9.064;2023-04-24T00:12:45;1.20;;;0.80;;
73733;SDS011;62039;50.000;9.064;2023-04-24T00:15:14;1.03;;;0.70;;
73733;SDS011;62039;50.000;9.064;2023-04-24T00:17:41;2.00;;;0.90;;
73733;SDS011;62039;50.000;9.064;2023-04-24T00:20:09;0.70;;;0.60;;
73733;SDS011;62039;50.000;9.064;2023-04-24T00:22:36;0.70;;;0.70;;
73733;SDS011;62039;50.000;9.064;2023-04-24T00:25:04;0.50;;;0.50;;
73733;SDS011;62039;50.000;9.064;2023-04-24T00:27:31;0.70;;;0.70;;
73733;SDS011;62039;50.000;9.064;2023-04-24T00:29:58;0.63;;;0.60;;
73733;SDS011;62039;50.000;9.064;2023-04-24T00:32:28;1.43;;;0.80;;
73733;SDS011;62039;50.000;9.064;2023-04-24T00:34:54;0.70;;;0.70;;
73733;SDS011;62039;50.000;9.064;2023-04-24T00:37:21;1.47;;;0.80;;
73733;SDS011;62039;50.000;9.064;2023-04-24T00:39:48;0.63;;;0.60;;
73733;SDS011;62039;50.000;9.064;2023-04-24T00:42:15;0.60;;;0.60;;
73733;SDS011;62039;50.000;9.064;2023-04-24T00:44:42;0.53;;;0.53;;
73733;SDS011;62039;50.000;9.064;2023-04-24T00:47:09;0.60;;;0.60;;
73733;SDS011;62039;50.000;9.064;2023-04-24T00:49:40;0.60;;;0.53;;
73733;SDS011;62039;50.000;9.064;2023-04-24T00:52:07;0.90;;;0.70;;
73733;SDS011;62039;50.000;9.064;2023-04-24T00:54:34;0.70;;;0.60;;
73733;SDS011;62039;50.000;9.064;2023-04-24T00:57:01;0.60;;;0.60;;
73733;SDS011;62039;50.000;9.064;2023-04-24T00:59:29;0.90;;;0.60;;
73733;SDS011;62039;50.000;9.064;2023-04-24T01:01:56;1.67;;;0.60;;
73733;SDS011;62039;50.000;9.064;2023-04-24T01:04:23;0.80;;;0.73;;
73733;SDS011;62039;50.000;9.064;2023-04-24T01:06:54;0.50;;;0.50;;
73733;SDS011;62039;50.000;9.064;2023-04-24T01:09:21;0.90;;;0.60;;
73733;SDS011;62039;50.000;9.064;2023-04-24T01:11:49;1.37;;;0.80;;
73733;SDS011;62039;50.000;9.064;2023-04-24T01:14:17;1.50;;;0.50;;
73733;SDS011;62039;50.000;9.064;2023-04-24T01:16:43;1.90;;;0.70;;
73733;SDS011;62039;50.000;9.064;2023-04-24T01:19:10;1.40;;;0.73;;
73733;SDS011;62039;50.000;9.064;2023-04-24T01:21:37;0.87;;;0.63;;
73733;SDS011;62039;50.000;9.064;2023-04-24T01:24:08;0.80;;;0.77;;
73733;SDS011;62039;50.000;9.064;2023-04-24T01:26:35;1.53;;;0.83;;
73733;SDS011;62039;50.000;9.064;2023-04-24T01:29:02;1.03;;;0.70;;
73733;SDS011;62039;50.000;9.064;2023-04-24T01:31:29;1.47;;;0.77;;
73733;SDS011;62039;50.000;9.064;2023-04-24T01:33:57;1.13;;;0.80;;
73733;SDS011;62039;50.000;9.064;2023-04-24T01:36:24;2.37;;;0.97;;
73733;SDS011;62039;50.000;9.064;2023-04-24T01:38:53;1.23;;;0.80;;
73733;SDS011;62039;50.000;9.064;2023-04-24T01:41:23;1.27;;;0.53;;
73733;SDS011;62039;50.000;9.064;2023-04-24T01:43:51;1.13;;;0.70;;
73733;SDS011;62039;50.000;9.064;2023-04-24T01:46:18;1.23;;;0.53;;
73733;SDS011;62039;50.000;9.064;2023-04-24T01:48:45;0.83;;;0.60;;
73733;SDS011;62039;50.000;9.064;2023-04-24T01:51:12;1.30;;;0.70;;
73733;SDS011;62039;50.000;9.064;2023-04-24T01:53:39;0.70;;;0.67;;
73733;SDS011;62039;50.000;9.064;2023-04-24T01:56:06;0.80;;;0.70;;
73733;SDS011;62039;50.000;9.064;2023-04-24T01:58:35;1.77;;;0.90;;
73733;SDS011;62039;50.000;9.064;2023-04-24T02:01:02;1.70;;;1.10;;
73733;SDS011;62039;50.000;9.064;2023-04-24T02:03:29;1.80;;;1.13;;
73733;SDS011;62039;50.000;9.064;2023-04-24T02:05:57;0.80;;;0.80;;
73733;SDS011;62039;50.000;9.064;2023-04-24T02:08:24;3.13;;;0.90;;
73733;SDS011;62039;50.000;9.064;2023-04-24T02:10:51;2.20;;;0.90;;
73733;SDS011;62039;50.000;9.064;2023-04-24T02:13:18;1.30;;;0.80;;
73733;SDS011;62039;50.000;9.064;2023-04-24T02:15:47;0.80;;;0.77;;
73733;SDS011;62039;50.000;9.064;2023-04-24T02:18:14;0.70;;;0.70;;
73733;SDS011;62039;50.000;9.064;2023-04-24T02:20:41;1.10;;;0.73;;
73733;SDS011;62039;50.000;9.064;2023-04-24T02:23:08;1.67;;;1.07;;
73733;SDS011;62039;50.000;9.064;2023-04-24T02:25:35;0.90;;;0.80;;
73733;SDS011;62039;50.000;9.064;2023-04-24T02:28:02;0.70;;;0.67;;
73733;SDS011;62039;50.000;9.064;2023-04-24T02:30:29;1.87;;;0.80;;
73733;SDS011;62039;50.000;9.064;2023-04-24T02:32:58;1.30;;;0.90;;
73733;SDS011;62039;50.000;9.064;2023-04-24T02:35:25;1.50;;;0.80;;
73733;SDS011;62039;50.000;9.064;2023-04-24T02:37:52;1.13;;;0.67;;
73733;SDS011;62039;50.000;9.064;2023-04-24T02:40:19;1.47;;;0.97;;
73733;SDS011;62039;50.000;9.064;2023-04-24T02:42:46;0.93;;;0.83;;
73733;SDS011;62039;50.000;9.064;2023-04-24T02:45:13;0.83;;;0.70;;
73733;SDS011;62039;50.000;9.064;2023-04-24T02:47:40;1.50;;;1.00;;
73733;SDS011;62039;50.000;9.064;2023-04-24T02:50:10;1.47;;;1.00;;
73733;SDS011;62039;50.000;9.064;2023-04-24T02:52:37;1.07;;;0.80;;
73733;SDS011;62039;50.000;9.064;2023-04-24T02:55:04;1.43;;;0.80;;
73733;SDS011;62039;50.000;9.064;2023-04-24T02:57:32;1.47;;;0.90;;
73733;SDS011;62039;50.000;9.064;2023-04-24T02:59:58;0.73;;;0.70;;
73733;SDS011;62039;50.000;9.064;2023-04-24T03:02:26;1.03;;;0.73;;
73733;SDS011;62039;50.000;9.064;2023-04-24T03:04:53;1.30;;;0.60;;
73733;SDS011;62039;50.000;9.064;2023-04-24T03:07:22;1.13;;;0.80;;
73733;SDS011;62039;50.000;9.064;2023-04-24T03:09:49;2.23;;;0.87;;
73733;SDS011;62039;50.000;9.064;2023-04-24T03:12:16;1.00;;;0.70;;
73733;SDS011;62039;50.000;9.064;2023-04-24T03:14:43;1.50;;;0.80;;
73733;SDS011;62039;50.000;9.064;2023-04-24T03:17:10;1.63;;;0.73;;
73733;SDS011;62039;50.000;9.064;2023-04-24T03:19:37;1.37;;;0.87;;
73733;SDS011;62039;50.000;9.064;2023-04-24T03:22:04;0.97;;;0.60;;
73733;SDS011;62039;50.000;9.064;2023-04-24T03:24:33;1.87;;;0.70;;
73733;SDS011;62039;50.000;9.064;2023-04-24T03:27:00;1.03;;;0.60;;
73733;SDS011;62039;50.000;9.064;2023-04-24T03:29:27;1.13;;;0.60;;
73733;SDS011;62039;50.000;9.064;2023-04-24T03:31:55;0.97;;;0.70;;
73733;SDS011;62039;50.000;9.064;2023-04-24T03:34:22;0.70;;;0.50;;
73733;SDS011;62039;50.000;9.064;2023-04-24T03:36:49;1.03;;;0.60;;
73733;SDS011;62039;50.000;9.064;2023-04-24T03:39:16;2.10;;;0.80;;
73733;SDS011;62039;50.000;9.064;2023-04-24T03:41:46;1.33;;;0.70;;
73733;SDS011;62039;50.000;9.064;2023-04-24T03:44:12;1.00;;;0.60;;
73733;SDS011;62039;50.000;9.064;2023-04-24T03:46:39;0.90;;;0.80;;
73733;SDS011;62039;50.000;9.064;2023-04-24T03:49:06;1.13;;;0.87;;
73733;SDS011;62039;50.000;9.064;2023-04-24T03:51:33;1.67;;;0.80;;
73733;SDS011;62039;50.000;9.064;2023-04-24T03:54:00;0.77;;;0.63;;
73733;SDS011;62039;50.000;9.064;2023-04-24T03:56:27;1.47;;;0.70;;
73733;SDS011;62039;50.000;9.064;2023-04-24T03:58:57;1.87;;;0.53;;
73733;SDS011;62039;50.000;9.064;2023-04-24T04:01:23;0.60;;;0.60;;
73733;SDS011;62039;50.000;9.064;2023-04-24T04:03:50;0.90;;;0.60;;
73733;SDS011;62039;50.000;9.064;2023-04-24T04:06:17;1.23;;;0.73;;
73733;SDS011;62039;50.000;9.064;2023-04-24T04:08:44;1.23;;;0.50;;
73733;SDS011;62039;50.000;9.064;2023-04-24T04:11:11;1.73;;;0.60;;
73733;SDS011;62039;50.000;9.064;2023-04-24T04:13:38;1.03;;;0.80;;
73733;SDS011;62039;50.000;9.064;2023-04-24T04:16:08;1.23;;;0.73;;
73733;SDS011;62039;50.000;9.064;2023-04-24T04:18:35;0.93;;;0.60;;
73733;SDS011;62039;50.000;9.064;2023-04-24T04:21:02;0.70;;;0.70;;
73733;SDS011;62039;50.000;9.064;2023-04-24T04:23:29;0.87;;;0.57;;
73733;SDS011;62039;50.000;9.064;2023-04-24T04:25:56;1.33;;;0.90;;
73733;SDS011;62039;50.000;9.064;2023-04-24T04:28:23;0.80;;;0.80;;
73733;SDS011;62039;50.000;9.064;2023-04-24T04:30:50;0.60;;;0.60;;
73733;SDS011;62039;50.000;9.064;2023-04-24T04:33:19;0.73;;;0.70;;
73733;SDS011;62039;50.000;9.064;2023-04-24T04:35:46;1.07;;;0.77;;
73733;SDS011;62039;50.000;9.064;2023-04-24T04:38:13;0.70;;;0.70;;
73733;SDS011;62039;50.000;9.064;2023-04-24T04:40:40;0.90;;;0.77;;
73733;SDS011;62039;50.000;9.064;2023-04-24T04:43:07;0.67;;;0.67;;
73733;SDS011;62039;50.000;9.064;2023-04-24T04:45:34;0.83;;;0.63;;
73733;SDS011;62039;50.000;9.064;2023-04-24T04:48:01;1.83;;;0.70;;
73733;SDS011;62039;50.000;9.064;2023-04-24T04:50:31;0.73;;;0.60;;
73733;SDS011;62039;50.000;9.064;2023-04-24T04:52:58;0.90;;;0.70;;
73733;SDS011;62039;50.000;9.064;2023-04-24T04:55:25;1.50;;;0.80;;
73733;SDS011;62039;50.000;9.064;2023-04-24T04:57:52;1.23;;;0.93;;
73733;SDS011;62039;50.000;9.064;2023-04-24T05:00:19;0.63;;;0.63;;
73733;SDS011;62039;50.000;9.064;2023-04-24T05:02:46;1.00;;;0.80;;
73733;SDS011;62039;50.000;9.064;2023-04-24T05:05:13;0.70;;;0.70;;
73733;SDS011;62039;50.000;9.064;2023-04-24T05:07:43;1.50;;;0.70;;
73733;SDS011;62039;50.000;9.064;2023-04-24T05:10:10;1.57;;;0.70;;
73733;SDS011;62039;50.000;9.064;2023-04-24T05:12:37;0.70;;;0.70;;
73733;SDS011;62039;50.000;9.064;2023-04-24T05:15:04;0.90;;;0.70;;
73733;SDS011;62039;50.000;9.064;2023-04-24T05:17:32;1.53;;;0.73;;
73733;SDS011;62039;50.000;9.064;2023-04-24T05:19:59;0.90;;;0.90;;
73733;SDS011;62039;50.000;9.064;2023-04-24T05:22:26;0.80;;;0.80;;
73733;SDS011;62039;50.000;9.064;2023-04-24T05:24:55;1.47;;;1.00;;
73733;SDS011;62039;50.000;9.064;2023-04-24T05:27:22;0.87;;;0.87;;
73733;SDS011;62039;50.000;9.064;2023-04-24T05:29:49;1.17;;;1.00;;
73733;SDS011;62039;50.000;9.064;2023-04-24T05:32:16;1.03;;;0.80;;
73733;SDS011;62039;50.000;9.064;2023-04-24T05:34:43;1.00;;;0.80;;
73733;SDS011;62039;50.000;9.064;2023-04-24T05:37:10;1.00;;;0.90;;
73733;SDS011;62039;50.000;9.064;2023-04-24T05:39:36;1.50;;;1.40;;
73733;SDS011;62039;50.000;9.064;2023-04-24T05:42:06;1.27;;;0.87;;
73733;SDS011;62039;50.000;9.064;2023-04-24T05:44:33;1.07;;;0.97;;
73733;SDS011;62039;50.000;9.064;2023-04-24T05:47:00;1.10;;;1.00;;
73733;SDS011;62039;50.000;9.064;2023-04-24T05:49:27;1.13;;;1.03;;
73733;SDS011;62039;50.000;9.064;2023-04-24T05:51:54;5.67;;;1.20;;
73733;SDS011;62039;50.000;9.064;2023-04-24T05:54:20;1.50;;;1.07;;
73733;SDS011;62039;50.000;9.064;2023-04-24T05:56:48;1.00;;;0.90;;
73733;SDS011;62039;50.000;9.064;2023-04-24T05:59:18;0.83;;;0.83;;
73733;SDS011;62039;50.000;9.064;2023-04-24T06:01:45;0.90;;;0.90;;
73733;SDS011;62039;50.000;9.064;2023-04-24T06:04:12;1.17;;;1.07;;
73733;SDS011;62039;50.000;9.064;2023-04-24T06:06:40;1.57;;;1.23;;
73733;SDS011;62039;50.000;9.064;2023-04-24T06:09:07;1.00;;;0.90;;
73733;SDS011;62039;50.000;9.064;2023-04-24T06:11:33;0.93;;;0.87;;
73733;SDS011;62039;50.000;9.064;2023-04-24T06:14:00;1.50;;;1.40;;
73733;SDS011;62039;50.000;9.064;2023-04-24T06:16:30;1.33;;;1.10;;
73733;SDS011;62039;50.000;9.064;2023-04-24T06:18:57;1.70;;;1.30;;
73733;SDS011;62039;50.000;9.064;2023-04-24T06:21:24;1.33;;;1.23;;
73733;SDS011;62039;50.000;9.064;2023-04-24T06:23:51;1.53;;;1.20;;
73733;SDS011;62039;50.000;9.064;2023-04-24T06:26:18;1.87;;;1.70;;
73733;SDS011;62039;50.000;9.064;2023-04-24T06:28:44;1.43;;;0.93;;
73733;SDS011;62039;50.000;9.064;2023-04-24T06:31:11;1.20;;;1.03;;
73733;SDS011;62039;50.000;9.064;2023-04-24T06:33:41;1.80;;;1.00;;
73733;SDS011;62039;50.000;9.064;2023-04-24T06:36:08;1.87;;;1.27;;
73733;SDS011;62039;50.000;9.064;2023-04-24T06:38:35;1.40;;;1.30;;
73733;SDS011;62039;50.000;9.064;2023-04-24T06:41:02;4.20;;;1.40;;
73733;SDS011;62039;50.000;9.064;2023-04-24T06:43:28;1.20;;;1.13;;
73733;SDS011;62039;50.000;9.064;2023-04-24T06:45:56;1.40;;;1.30;;
73733;SDS011;62039;50.000;9.064;2023-04-24T06:48:23;2.13;;;1.20;;
73733;SDS011;62039;50.000;9.064;2023-04-24T06:50:53;1.40;;;1.30;;
73733;SDS011;62039;50.000;9.064;2023-04-24T06:53:20;1.37;;;0.90;;
73733;SDS011;62039;50.000;9.064;2023-04-24T06:55:47;1.40;;;1.00;;
73733;SDS011;62039;50.000;9.064;2023-04-24T06:58:14;1.43;;;1.10;;
73733;SDS011;62039;50.000;9.064;2023-04-24T07:00:41;1.43;;;1.23;;
73733;SDS011;62039;50.000;9.064;2023-04-24T07:03:08;1.30;;;1.20;;
73733;SDS011;62039;50.000;9.064;2023-04-24T07:05:35;1.30;;;1.10;;
73733;SDS011;62039;50.000;9.064;2023-04-24T07:08:04;1.83;;;1.43;;
73733;SDS011;62039;50.000;9.064;2023-04-24T07:10:31;1.80;;;1.60;;
73733;SDS011;62039;50.000;9.064;2023-04-24T07:12:58;1.90;;;1.13;;
73733;SDS011;62039;50.000;9.064;2023-04-24T07:15:25;1.50;;;1.30;;
73733;SDS011;62039;50.000;9.064;2023-04-24T07:17:52;2.50;;;1.73;;
73733;SDS011;62039;50.000;9.064;2023-04-24T07:20:19;1.40;;;1.30;;
73733;SDS011;62039;50.000;9.064;2023-04-24T07:22:46;2.40;;;1.50;;
73733;SDS011;62039;50.000;9.064;2023-04-24T07:25:16;2.00;;;1.53;;
73733;SDS011;62039;50.000;9.064;2023-04-24T07:27:43;1.73;;;1.47;;
73733;SDS011;62039;50.000;9.064;2023-04-24T07:30:10;2.00;;;1.50;;
73733;SDS011;62039;50.000;9.064;2023-04-24T07:32:38;1.40;;;1.30;;
73733;SDS011;62039;50.000;9.064;2023-04-24T07:35:05;2.50;;;1.60;;
73733;SDS011;62039;50.000;9.064;2023-04-24T07:37:32;1.40;;;1.30;;
73733;SDS011;62039;50.000;9.064;2023-04-24T07:39:59;1.37;;;1.27;;
73733;SDS011;62039;50.000;9.064;2023-04-24T07:42:29;1.47;;;1.37;;
73733;SDS011;62039;50.000;9.064;2023-04-24T07:44:56;1.40;;;1.30;;
73733;SDS011;62039;50.000;9.064;2023-04-24T07:47:23;3.20;;;1.93;;
73733;SDS011;62039;50.000;9.064;2023-04-24T07:49:50;1.70;;;1.60;;
73733;SDS011;62039;50.000;9.064;2023-04-24T07:52:17;1.87;;;1.77;;
73733;SDS011;62039;50.000;9.064;2023-04-24T07:54:44;2.43;;;1.90;;
73733;SDS011;62039;50.000;9.064;2023-04-24T07:57:11;3.13;;;2.17;;
73733;SDS011;62039;50.000;9.064;2023-04-24T07:59:40;2.10;;;1.90;;
73733;SDS011;62039;50.000;9.064;2023-04-24T08:02:08;2.27;;;1.60;;
73733;SDS011;62039;50.000;9.064;2023-04-24T08:04:35;1.73;;;1.57;;
73733;SDS011;62039;50.000;9.064;2023-04-24T08:07:02;1.93;;;1.40;;
73733;SDS011;62039;50.000;9.064;2023-04-24T08:09:29;1.70;;;1.43;;
73733;SDS011;62039;50.000;9.064;2023-04-24T08:11:56;2.07;;;1.80;;
73733;SDS011;62039;50.000;9.064;2023-04-24T08:14:23;2.00;;;1.47;;
73733;SDS011;62039;50.000;9.064;2023-04-24T08:16:53;1.90;;;1.50;;
73733;SDS011;62039;50.000;9.064;2023-04-24T08:19:21;1.60;;;1.50;;
73733;SDS011;62039;50.000;9.064;2023-04-24T08:21:48;2.13;;;1.60;;
73733;SDS011;62039;50.000;9.064;2023-04-24T08:24:15;1.73;;;1.50;;
73733;SDS011;62039;50.000;9.064;2023-04-24T08:26:42;1.90;;;1.70;;
73733;SDS011;62039;50.000;9.064;2023-04-24T08:29:09;2.23;;;1.57;;
73733;SDS011;62039;50.000;9.064;2023-04-24T08:31:36;2.03;;;1.93;;
73733;SDS011;62039;50.000;9.064;2023-04-24T08:34:05;1.60;;;1.50;;
73733;SDS011;62039;50.000;9.064;2023-04-24T08:36:32;1.60;;;1.50;;
73733;SDS011;62039;50.000;9.064;2023-04-24T08:39:12;2.20;;;2.00;;
73733;SDS011;62039;50.000;9.064;2023-04-24T08:41:39;2.10;;;2.00;;
73733;SDS011;62039;50.000;9.064;2023-04-24T08:44:08;2.47;;;2.10;;
73733;SDS011;62039;50.000;9.064;2023-04-24T08:46:36;2.10;;;1.90;;
73733;SDS011;62039;50.000;9.064;2023-04-24T08:49:06;2.13;;;1.60;;
73733;SDS011;62039;50.000;9.064;2023-04-24T08:51:33;2.63;;;1.83;;
73733;SDS011;62039;50.000;9.064;2023-04-24T08:54:03;2.03;;;1.47;;
73733;SDS011;62039;50.000;9.064;2023-04-24T08:56:31;1.40;;;1.30;;
73733;SDS011;62039;50.000;9.064;2023-04-24T08:59:00;2.20;;;1.30;;
73733;SDS011;62039;50.000;9.064;2023-04-24T09:01:28;2.67;;;1.50;;
73733;SDS011;62039;50.000;9.064;2023-04-24T09:03:55;1.57;;;1.20;;
73733;SDS011;62039;50.000;9.064;2023-04-24T09:06:25;1.53;;;1.10;;
73733;SDS011;62039;50.000;9.064;2023-04-24T09:08:53;1.20;;;1.10;;
73733;SDS011;62039;50.000;9.064;2023-04-24T09:11:20;1.10;;;1.00;;
73733;SDS011;62039;50.000;9.064;2023-04-24T09:13:47;2.27;;;2.07;;
73733;SDS011;62039;50.000;9.064;2023-04-24T09:16:14;3.23;;;1.60;;
73733;SDS011;62039;50.000;9.064;2023-04-24T09:18:41;3.33;;;2.93;;
73733;SDS011;62039;50.000;9.064;2023-04-24T09:21:09;3.83;;;3.20;;
73733;SDS011;62039;50.000;9.064;2023-04-24T09:23:38;4.50;;;4.07;;
73733;SDS011;62039;50.000;9.064;2023-04-24T09:26:05;5.33;;;4.40;;
73733;SDS011;62039;50.000;9.064;2023-04-24T09:28:36;3.17;;;2.87;;
73733;SDS011;62039;50.000;9.064;2023-04-24T09:31:05;2.83;;;2.30;;
73733;SDS011;62039;50.000;9.064;2023-04-24T09:33:33;2.70;;;2.37;;
73733;SDS011;62039;50.000;9.064;2023-04-24T09:36:01;1.83;;;1.63;;
73733;SDS011;62039;50.000;9.064;2023-04-24T09:38:31;2.20;;;2.00;;
73733;SDS011;62039;50.000;9.064;2023-04-24T09:41:04;2.07;;;1.87;;
73733;SDS011;62039;50.000;9.064;2023-04-24T09:43:32;1.53;;;1.37;;
73733;SDS011;62039;50.000;9.064;2023-04-24T09:46:03;1.17;;;1.10;;
73733;SDS011;62039;50.000;9.064;2023-04-24T09:48:33;1.57;;;1.47;;
73733;SDS011;62039;50.000;9.064;2023-04-24T09:51:01;1.70;;;1.60;;
73733;SDS011;62039;50.000;9.064;2023-04-24T09:53:30;2.97;;;2.60;;
73733;SDS011;62039;50.000;9.064;2023-04-24T09:56:06;1.73;;;1.20;;
73733;SDS011;62039;50.000;9.064;2023-04-24T09:58:34;3.20;;;1.97;;
73733;SDS011;62039;50.000;9.064;2023-04-24T10:01:01;1.87;;;1.50;;
73733;SDS011;62039;50.000;9.064;2023-04-24T10:03:29;1.67;;;1.57;;
73733;SDS011;62039;50.000;9.064;2023-04-24T10:05:58;2.00;;;1.60;;
73733;SDS011;62039;50.000;9.064;2023-04-24T10:08:25;1.83;;;1.73;;
73733;SDS011;62039;50.000;9.064;2023-04-24T10:10:59;1.53;;;1.30;;
73733;SDS011;62039;50.000;9.064;2023-04-24T10:13:29;1.40;;;1.20;;
73733;SDS011;62039;50.000;9.064;2023-04-24T10:15:57;1.30;;;1.20;;
73733;SDS011;62039;50.000;9.064;2023-04-24T10:18:26;2.97;;;1.23;;
73733;SDS011;62039;50.000;9.064;2023-04-24T10:20:54;3.17;;;2.77;;
73733;SDS011;62039;50.000;9.064;2023-04-24T10:23:21;2.30;;;1.60;;
73733;SDS011;62039;50.000;9.064;2023-04-24T10:25:48;1.53;;;1.40;;
73733;SDS011;62039;50.000;9.064;2023-04-24T10:28:17;1.60;;;1.50;;
73733;SDS011;62039;50.000;9.064;2023-04-24T10:30:48;1.70;;;1.60;;
73733;SDS011;62039;50.000;9.064;2023-04-24T10:33:16;2.00;;;1.40;;
73733;SDS011;62039;50.000;9.064;2023-04-24T10:35:45;1.40;;;1.30;;
73733;SDS011;62039;50.000;9.064;2023-04-24T10:38:15;1.50;;;1.40;;
73733;SDS011;62039;50.000;9.064;2023-04-24T10:40:45;1.70;;;1.60;;
73733;SDS011;62039;50.000;9.064;2023-04-24T10:43:13;1.40;;;1.30;;
73733;SDS011;62039;50.000;9.064;2023-04-24T10:45:59;1.50;;;1.40;;
73733;SDS011;62039;50.000;9.064;2023-04-24T10:48:27;3.67;;;1.67;;
73733;SDS011;62039;50.000;9.064;2023-04-24T10:50:54;2.97;;;1.40;;
73733;SDS011;62039;50.000;9.064;2023-04-24T10:53:22;1.93;;;1.57;;
73733;SDS011;62039;50.000;9.064;2023-04-24T10:55:50;1.90;;;1.70;;
73733;SDS011;62039;50.000;9.064;2023-04-24T10:58:21;1.93;;;1.50;;
73733;SDS011;62039;50.000;9.064;2023-04-24T11:00:58;1.50;;;1.40;;
73733;SDS011;62039;50.000;9.064;2023-04-24T11:03:27;1.53;;;1.43;;
73733;SDS011;62039;50.000;9.064;2023-04-24T11:05:56;1.47;;;1.27;;
73733;SDS011;62039;50.000;9.064;2023-04-24T11:08:25;1.27;;;1.17;;
73733;SDS011;62039;50.000;9.064;2023-04-24T11:10:57;1.30;;;1.20;;
73733;SDS011;62039;50.000;9.064;2023-04-24T11:16:31;1.77;;;1.57;;
73733;SDS011;62039;50.000;9.064;2023-04-24T11:19:03;3.50;;;2.50;;
73733;SDS011;62039;50.000;9.064;2023-04-24T11:21:32;6.77;;;4.80;;
73733;SDS011;62039;50.000;9.064;2023-04-24T11:26:54;6.07;;;4.87;;
73733;SDS011;62039;50.000;9.064;2023-04-24T11:29:22;4.07;;;3.03;;
73733;SDS011;62039;50.000;9.064;2023-04-24T11:31:53;1.53;;;1.43;;
73733;SDS011;62039;50.000;9.064;2023-04-24T11:34:21;1.73;;;1.37;;
73733;SDS011;62039;50.000;9.064;2023-04-24T11:36:48;1.30;;;1.20;;
73733;SDS011;62039;50.000;9.064;2023-04-24T11:39:15;1.40;;;1.30;;
73733;SDS011;62039;50.000;9.064;2023-04-24T11:41:42;1.30;;;1.10;;
73733;SDS011;62039;50.000;9.064;2023-04-24T11:44:09;0.90;;;0.90;;
73733;SDS011;62039;50.000;9.064;2023-04-24T11:46:36;2.07;;;1.80;;
73733;SDS011;62039;50.000;9.064;2023-04-24T11:49:06;1.90;;;1.60;;
73733;SDS011;62039;50.000;9.064;2023-04-24T11:51:33;3.60;;;2.43;;
73733;SDS011;62039;50.000;9.064;2023-04-24T11:54:16;3.10;;;2.80;;
73733;SDS011;62039;50.000;9.064;2023-04-24T11:56:44;1.70;;;1.40;;
73733;SDS011;62039;50.000;9.064;2023-04-24T11:59:12;3.70;;;2.30;;
73733;SDS011;62039;50.000;9.064;2023-04-24T12:01:42;3.57;;;2.80;;
73733;SDS011;62039;50.000;9.064;2023-04-24T12:04:12;1.50;;;1.40;;
73733;SDS011;62039;50.000;9.064;2023-04-24T12:06:45;3.10;;;2.70;;
73733;SDS011;62039;50.000;9.064;2023-04-24T12:09:25;3.27;;;2.50;;
73733;SDS011;62039;50.000;9.064;2023-04-24T12:11:52;5.10;;;3.20;;
73733;SDS011;62039;50.000;9.064;2023-04-24T12:14:19;2.83;;;2.40;;
73733;SDS011;62039;50.000;9.064;2023-04-24T12:16:47;2.00;;;1.53;;
73733;SDS011;62039;50.000;9.064;2023-04-24T12:19:20;1.67;;;1.50;;
73733;SDS011;62039;50.000;9.064;2023-04-24T12:21:58;1.43;;;1.30;;
73733;SDS011;62039;50.000;9.064;2023-04-24T12:24:26;1.50;;;1.40;;
73733;SDS011;62039;50.000;9.064;2023-04-24T12:26:53;1.17;;;1.07;;
73733;SDS011;62039;50.000;9.064;2023-04-24T12:29:20;1.27;;;1.17;;
73733;SDS011;62039;50.000;9.064;2023-04-24T12:31:47;1.63;;;1.10;;
73733;SDS011;62039;50.000;9.064;2023-04-24T12:34:21;1.40;;;1.30;;
73733;SDS011;62039;50.000;9.064;2023-04-24T12:36:49;1.60;;;1.20;;
73733;SDS011;62039;50.000;9.064;2023-04-24T12:39:16;1.80;;;1.30;;
73733;SDS011;62039;50.000;9.064;2023-04-24T12:44:31;2.13;;;1.23;;
73733;SDS011;62039;50.000;9.064;2023-04-24T12:46:58;2.70;;;1.20;;
73733;SDS011;62039;50.000;9.064;2023-04-24T12:49:29;1.27;;;1.17;;
73733;SDS011;62039;50.000;9.064;2023-04-24T12:51:57;1.67;;;1.20;;
73733;SDS011;62039;50.000;9.064;2023-04-24T12:54:23;1.00;;;1.00;;
73733;SDS011;62039;50.000;9.064;2023-04-24T12:56:51;1.30;;;1.20;;
73733;SDS011;62039;50.000;9.064;2023-04-24T12:59:18;1.33;;;1.20;;
73733;SDS011;62039;50.000;9.064;2023-04-24T13:01:45;1.17;;;1.07;;
73733;SDS011;62039;50.000;9.064;2023-04-24T13:04:14;1.40;;;1.30;;
73733;SDS011;62039;50.000;9.064;2023-04-24T13:06:44;1.03;;;1.00;;
73733;SDS011;62039;50.000;9.064;2023-04-24T13:09:11;2.00;;;1.40;;
73733;SDS011;62039;50.000;9.064;2023-04-24T13:11:38;1.30;;;1.20;;
73733;SDS011;62039;50.000;9.064;2023-04-24T13:14:05;1.37;;;1.20;;
73733;SDS011;62039;50.000;9.064;2023-04-24T13:16:32;1.37;;;1.10;;
73733;SDS011;62039;50.000;9.064;2023-04-24T13:18:59;2.00;;;1.30;;
73733;SDS011;62039;50.000;9.064;2023-04-24T13:21:26;1.40;;;1.30;;
73733;SDS011;62039;50.000;9.064;2023-04-24T13:23:55;2.73;;;1.83;;
73733;SDS011;62039;50.000;9.064;2023-04-24T13:26:22;1.70;;;1.60;;
73733;SDS011;62039;50.000;9.064;2023-04-24T13:28:49;1.63;;;1.53;;
73733;SDS011;62039;50.000;9.064;2023-04-24T13:31:16;1.33;;;1.20;;
73733;SDS011;62039;50.000;9.064;2023-04-24T13:33:43;1.90;;;1.70;;
73733;SDS011;62039;50.000;9.064;2023-04-24T13:36:11;2.33;;;1.53;;
73733;SDS011;62039;50.000;9.064;2023-04-24T13:38:38;1.60;;;1.50;;
73733;SDS011;62039;50.000;9.064;2023-04-24T13:41:07;2.73;;;1.80;;
73733;SDS011;62039;50.000;9.064;2023-04-24T13:43:34;2.07;;;1.60;;
73733;SDS011;62039;50.000;9.064;2023-04-24T13:46:01;1.50;;;1.30;;
73733;SDS011;62039;50.000;9.064;2023-04-24T13:48:28;1.30;;;1.17;;
73733;SDS011;62039;50.000;9.064;2023-04-24T13:50:56;1.33;;;1.23;;
73733;SDS011;62039;50.000;9.064;2023-04-24T13:53:22;1.33;;;1.20;;
73733;SDS011;62039;50.000;9.064;2023-04-24T13:55:49;2.03;;;1.50;;
73733;SDS011;62039;50.000;9.064;2023-04-24T13:58:19;1.20;;;1.10;;
73733;SDS011;62039;50.000;9.064;2023-04-24T14:00:46;1.67;;;1.30;;
73733;SDS011;62039;50.000;9.064;2023-04-24T14:03:13;1.63;;;1.30;;
73733;SDS011;62039;50.000;9.064;2023-04-24T14:05:40;1.60;;;1.50;;
73733;SDS011;62039;50.000;9.064;2023-04-24T14:08:07;1.90;;;1.80;;
73733;SDS011;62039;50.000;9.064;2023-04-24T14:10:34;2.30;;;1.70;;
73733;SDS011;62039;50.000;9.064;2023-04-24T14:13:01;1.47;;;1.37;;
73733;SDS011;62039;50.000;9.064;2023-04-24T14:15:30;2.23;;;2.03;;
73733;SDS011;62039;50.000;9.064;2023-04-24T14:17:57;2.17;;;1.90;;
73733;SDS011;62039;50.000;9.064;2023-04-24T14:20:24;2.20;;;1.57;;
73733;SDS011;62039;50.000;9.064;2023-04-24T14:22:51;4.27;;;1.83;;
73733;SDS011;62039;50.000;9.064;2023-04-24T14:25:18;1.77;;;1.60;;
73733;SDS011;62039;50.000;9.064;2023-04-24T14:27:45;2.70;;;2.00;;
73733;SDS011;62039;50.000;9.064;2023-04-24T14:30:12;2.13;;;1.70;;
73733;SDS011;62039;50.000;9.064;2023-04-24T14:32:43;2.17;;;1.70;;
73733;SDS011;62039;50.000;9.064;2023-04-24T14:35:10;2.73;;;1.90;;
73733;SDS011;62039;50.000;9.064;2023-04-24T14:37:37;2.10;;;1.67;;
73733;SDS011;62039;50.000;9.064;2023-04-24T14:40:04;1.47;;;1.37;;
73733;SDS011;62039;50.000;9.064;2023-04-24T14:42:52;2.83;;;2.00;;
73733;SDS011;62039;50.000;9.064;2023-04-24T14:45:19;2.57;;;1.90;;
73733;SDS011;62039;50.000;9.064;2023-04-24T14:47:48;2.83;;;1.73;;
73733;SDS011;62039;50.000;9.064;2023-04-24T14:50:16;2.03;;;1.80;;
73733;SDS011;62039;50.000;9.064;2023-04-24T14:52:43;1.97;;;1.40;;
73733;SDS011;62039;50.000;9.064;2023-04-24T14:55:10;1.43;;;1.33;;
73733;SDS011;62039;50.000;9.064;2023-04-24T14:57:37;1.90;;;1.70;;
73733;SDS011;62039;50.000;9.064;2023-04-24T15:00:04;2.30;;;2.00;;